Terminal Aerodrome Forecast
Issued by NWS

Home | Current Version | Previous Version | Text Only | Print | Product List | Glossary On
Versions: 1 2 3 4 5 6 7 8 9 10 11 12 13 14 15 16
344
FTUS46 KSEW 241529 AAA
TAFBFI
TAF AMD
KBFI 241529Z 2415/2512 15005KT P6SM BKN007
     FM241700 VRB03KT P6SM SCT012 SCT040
      TEMPO 2417/2420 BKN012 BKN040
     FM242100 VRB03KT P6SM SCT020 SCT040 BKN200
     FM250600 00000KT P6SM VCFG SCT020 BKN200=

USA.gov is the U.S. government's official web portal to all federal, state and local government web resources and services.